sensor_id;sensor_type;location;lat;lon;timestamp;temperature;humidity
12315;DHT22;23886;46.614;14.276;2023-06-26T00:00:21;16.20;99.90
12315;DHT22;23886;46.614;14.276;2023-06-26T00:02:48;16.20;99.90
12315;DHT22;23886;46.614;14.276;2023-06-26T00:05:17;16.10;99.90
12315;DHT22;23886;46.614;14.276;2023-06-26T00:07:44;16.00;99.90
12315;DHT22;23886;46.614;14.276;2023-06-26T00:10:11;16.00;99.90
12315;DHT22;23886;46.614;14.276;2023-06-26T00:12:38;16.00;99.90
12315;DHT22;23886;46.614;14.276;2023-06-26T00:15:06;16.10;99.90
12315;DHT22;23886;46.614;14.276;2023-06-26T00:17:33;16.10;99.90
12315;DHT22;23886;46.614;14.276;2023-06-26T00:20:03;16.00;99.90
12315;DHT22;23886;46.614;14.276;2023-06-26T00:22:32;15.80;99.90
12315;DHT22;23886;46.614;14.276;2023-06-26T00:24:59;15.70;99.90
12315;DHT22;23886;46.614;14.276;2023-06-26T00:27:26;15.70;99.90
12315;DHT22;23886;46.614;14.276;2023-06-26T00:29:53;15.60;99.90
12315;DHT22;23886;46.614;14.276;2023-06-26T00:32:20;15.70;99.90
12315;DHT22;23886;46.614;14.276;2023-06-26T00:34:47;15.70;99.90
12315;DHT22;23886;46.614;14.276;2023-06-26T00:37:14;15.60;99.90
12315;DHT22;23886;46.614;14.276;2023-06-26T00:39:42;15.70;99.90
12315;DHT22;23886;46.614;14.276;2023-06-26T00:42:09;15.70;99.90
12315;DHT22;23886;46.614;14.276;2023-06-26T00:44:36;15.70;99.90
12315;DHT22;23886;46.614;14.276;2023-06-26T00:47:04;15.70;99.90
12315;DHT22;23886;46.614;14.276;2023-06-26T00:49:31;15.50;99.90
12315;DHT22;23886;46.614;14.276;2023-06-26T00:51:58;15.40;99.90
12315;DHT22;23886;46.614;14.276;2023-06-26T00:54:25;15.40;99.90
12315;DHT22;23886;46.614;14.276;2023-06-26T00:56:54;15.40;99.90
12315;DHT22;23886;46.614;14.276;2023-06-26T00:59:21;15.50;99.90
12315;DHT22;23886;46.614;14.276;2023-06-26T01:01:48;15.60;99.90
12315;DHT22;23886;46.614;14.276;2023-06-26T01:04:15;15.60;99.90
12315;DHT22;23886;46.614;14.276;2023-06-26T01:06:44;15.50;99.90
12315;DHT22;23886;46.614;14.276;2023-06-26T01:09:16;15.40;99.90
12315;DHT22;23886;46.614;14.276;2023-06-26T01:11:44;15.40;99.90
12315;DHT22;23886;46.614;14.276;2023-06-26T01:14:13;15.30;99.90
12315;DHT22;23886;46.614;14.276;2023-06-26T01:16:40;15.30;99.90
12315;DHT22;23886;46.614;14.276;2023-06-26T01:19:18;15.30;99.90
12315;DHT22;23886;46.614;14.276;2023-06-26T01:21:55;15.20;99.90
12315;DHT22;23886;46.614;14.276;2023-06-26T01:24:25;15.20;99.90
12315;DHT22;23886;46.614;14.276;2023-06-26T01:26:57;15.10;99.90
12315;DHT22;23886;46.614;14.276;2023-06-26T01:29:26;15.00;99.90
12315;DHT22;23886;46.614;14.276;2023-06-26T01:31:55;15.00;99.90
12315;DHT22;23886;46.614;14.276;2023-06-26T01:34:22;14.90;99.90
12315;DHT22;23886;46.614;14.276;2023-06-26T01:36:49;14.90;99.90
12315;DHT22;23886;46.614;14.276;2023-06-26T01:39:18;14.90;99.90
12315;DHT22;23886;46.614;14.276;2023-06-26T01:41:45;14.90;99.90
12315;DHT22;23886;46.614;14.276;2023-06-26T01:44:20;14.80;99.90
12315;DHT22;23886;46.614;14.276;2023-06-26T01:46:57;14.80;99.90
12315;DHT22;23886;46.614;14.276;2023-06-26T01:49:39;15.00;99.90
12315;DHT22;23886;46.614;14.276;2023-06-26T01:52:11;15.10;99.90
12315;DHT22;23886;46.614;14.276;2023-06-26T01:54:55;14.90;99.90
12315;DHT22;23886;46.614;14.276;2023-06-26T01:57:24;14.90;99.90
12315;DHT22;23886;46.614;14.276;2023-06-26T01:59:55;14.90;99.90
12315;DHT22;23886;46.614;14.276;2023-06-26T02:02:23;15.00;99.90
12315;DHT22;23886;46.614;14.276;2023-06-26T02:04:51;15.10;99.90
12315;DHT22;23886;46.614;14.276;2023-06-26T02:07:18;14.90;99.90
12315;DHT22;23886;46.614;14.276;2023-06-26T02:09:45;14.90;99.90
12315;DHT22;23886;46.614;14.276;2023-06-26T02:12:12;14.80;99.90
12315;DHT22;23886;46.614;14.276;2023-06-26T02:14:40;14.80;99.90
12315;DHT22;23886;46.614;14.276;2023-06-26T02:17:08;14.70;99.90
12315;DHT22;23886;46.614;14.276;2023-06-26T02:19:35;14.50;99.90
12315;DHT22;23886;46.614;14.276;2023-06-26T02:22:02;14.40;99.90
12315;DHT22;23886;46.614;14.276;2023-06-26T02:24:29;14.40;99.90
12315;DHT22;23886;46.614;14.276;2023-06-26T02:26:56;14.50;99.90
12315;DHT22;23886;46.614;14.276;2023-06-26T02:29:24;14.50;99.90
12315;DHT22;23886;46.614;14.276;2023-06-26T02:31:51;14.60;99.90
12315;DHT22;23886;46.614;14.276;2023-06-26T02:34:19;14.70;99.90
12315;DHT22;23886;46.614;14.276;2023-06-26T02:36:46;14.70;99.90
12315;DHT22;23886;46.614;14.276;2023-06-26T02:39:13;14.50;99.90
12315;DHT22;23886;46.614;14.276;2023-06-26T02:41:40;14.50;99.90
12315;DHT22;23886;46.614;14.276;2023-06-26T02:44:09;14.60;99.90
12315;DHT22;23886;46.614;14.276;2023-06-26T02:46:37;14.40;99.90
12315;DHT22;23886;46.614;14.276;2023-06-26T02:49:04;14.30;99.90
12315;DHT22;23886;46.614;14.276;2023-06-26T02:51:33;14.50;99.90
12315;DHT22;23886;46.614;14.276;2023-06-26T02:54:01;14.50;99.90
12315;DHT22;23886;46.614;14.276;2023-06-26T02:56:28;14.40;99.90
12315;DHT22;23886;46.614;14.276;2023-06-26T02:58:55;14.60;99.90
12315;DHT22;23886;46.614;14.276;2023-06-26T03:01:22;14.60;99.90
12315;DHT22;23886;46.614;14.276;2023-06-26T03:03:49;14.50;99.90
12315;DHT22;23886;46.614;14.276;2023-06-26T03:06:16;14.50;99.90
12315;DHT22;23886;46.614;14.276;2023-06-26T03:08:44;14.40;99.90
12315;DHT22;23886;46.614;14.276;2023-06-26T03:11:11;14.50;99.90
12315;DHT22;23886;46.614;14.276;2023-06-26T03:13:38;14.40;99.90
12315;DHT22;23886;46.614;14.276;2023-06-26T03:16:05;14.40;99.90
12315;DHT22;23886;46.614;14.276;2023-06-26T03:18:32;14.30;99.90
12315;DHT22;23886;46.614;14.276;2023-06-26T03:20:59;14.20;99.90
12315;DHT22;23886;46.614;14.276;2023-06-26T03:23:26;14.10;99.90
12315;DHT22;23886;46.614;14.276;2023-06-26T03:25:55;14.20;99.90
12315;DHT22;23886;46.614;14.276;2023-06-26T03:28:22;14.30;99.90
12315;DHT22;23886;46.614;14.276;2023-06-26T03:30:49;14.30;99.90
12315;DHT22;23886;46.614;14.276;2023-06-26T03:33:16;14.20;99.90
12315;DHT22;23886;46.614;14.276;2023-06-26T03:35:43;14.20;99.90
12315;DHT22;23886;46.614;14.276;2023-06-26T03:38:10;14.20;99.90
12315;DHT22;23886;46.614;14.276;2023-06-26T03:40:37;14.20;99.90
12315;DHT22;23886;46.614;14.276;2023-06-26T03:43:05;14.10;99.90
12315;DHT22;23886;46.614;14.276;2023-06-26T03:45:32;14.20;99.90
12315;DHT22;23886;46.614;14.276;2023-06-26T03:47:59;14.30;99.90
12315;DHT22;23886;46.614;14.276;2023-06-26T03:50:26;14.20;99.90
12315;DHT22;23886;46.614;14.276;2023-06-26T03:52:53;14.20;99.90
12315;DHT22;23886;46.614;14.276;2023-06-26T03:55:20;14.40;99.90
12315;DHT22;23886;46.614;14.276;2023-06-26T03:57:49;14.30;99.90
12315;DHT22;23886;46.614;14.276;2023-06-26T04:00:17;14.40;99.90
12315;DHT22;23886;46.614;14.276;2023-06-26T04:02:44;14.40;99.90
12315;DHT22;23886;46.614;14.276;2023-06-26T04:05:12;14.50;99.90
12315;DHT22;23886;46.614;14.276;2023-06-26T04:07:39;14.60;99.90
12315;DHT22;23886;46.614;14.276;2023-06-26T04:10:07;14.60;99.90
12315;DHT22;23886;46.614;14.276;2023-06-26T04:12:34;14.70;99.90
12315;DHT22;23886;46.614;14.276;2023-06-26T04:15:01;14.90;99.90
12315;DHT22;23886;46.614;14.276;2023-06-26T04:17:29;14.90;99.90
12315;DHT22;23886;46.614;14.276;2023-06-26T04:19:56;15.00;99.90
12315;DHT22;23886;46.614;14.276;2023-06-26T04:22:23;15.10;99.90
12315;DHT22;23886;46.614;14.276;2023-06-26T04:24:50;15.20;99.90
12315;DHT22;23886;46.614;14.276;2023-06-26T04:27:17;15.30;99.90
12315;DHT22;23886;46.614;14.276;2023-06-26T04:29:44;15.40;99.90
12315;DHT22;23886;46.614;14.276;2023-06-26T04:32:11;15.50;99.90
12315;DHT22;23886;46.614;14.276;2023-06-26T04:34:40;15.60;99.90
12315;DHT22;23886;46.614;14.276;2023-06-26T04:37:09;15.70;99.90
12315;DHT22;23886;46.614;14.276;2023-06-26T04:39:37;15.90;99.90
12315;DHT22;23886;46.614;14.276;2023-06-26T04:42:05;15.90;99.90
12315;DHT22;23886;46.614;14.276;2023-06-26T04:44:33;16.00;99.90
12315;DHT22;23886;46.614;14.276;2023-06-26T04:46:59;16.10;99.90
12315;DHT22;23886;46.614;14.276;2023-06-26T04:49:26;16.20;99.90
12315;DHT22;23886;46.614;14.276;2023-06-26T04:51:56;16.30;99.90
12315;DHT22;23886;46.614;14.276;2023-06-26T04:54:26;16.30;99.90
12315;DHT22;23886;46.614;14.276;2023-06-26T04:56:53;16.50;99.90
12315;DHT22;23886;46.614;14.276;2023-06-26T04:59:20;16.50;99.90
12315;DHT22;23886;46.614;14.276;2023-06-26T05:01:47;16.60;99.90
12315;DHT22;23886;46.614;14.276;2023-06-26T05:04:15;16.80;99.90
12315;DHT22;23886;46.614;14.276;2023-06-26T05:06:42;17.00;99.90
12315;DHT22;23886;46.614;14.276;2023-06-26T05:09:10;17.20;99.90
12315;DHT22;23886;46.614;14.276;2023-06-26T05:11:37;17.10;99.90
12315;DHT22;23886;46.614;14.276;2023-06-26T05:14:04;16.90;99.90
12315;DHT22;23886;46.614;14.276;2023-06-26T05:16:33;17.00;99.90
12315;DHT22;23886;46.614;14.276;2023-06-26T05:19:00;17.00;99.90
12315;DHT22;23886;46.614;14.276;2023-06-26T05:21:28;17.10;99.90
12315;DHT22;23886;46.614;14.276;2023-06-26T05:23:57;17.30;99.90
12315;DHT22;23886;46.614;14.276;2023-06-26T05:26:26;17.30;99.90
12315;DHT22;23886;46.614;14.276;2023-06-26T05:28:54;17.40;99.90
12315;DHT22;23886;46.614;14.276;2023-06-26T05:31:22;17.40;99.90
12315;DHT22;23886;46.614;14.276;2023-06-26T05:33:49;17.50;99.90
12315;DHT22;23886;46.614;14.276;2023-06-26T05:36:18;17.50;99.90
12315;DHT22;23886;46.614;14.276;2023-06-26T05:38:45;17.70;99.90
12315;DHT22;23886;46.614;14.276;2023-06-26T05:41:14;17.70;99.90
12315;DHT22;23886;46.614;14.276;2023-06-26T05:43:43;17.80;99.90
12315;DHT22;23886;46.614;14.276;2023-06-26T05:46:09;17.80;99.90
12315;DHT22;23886;46.614;14.276;2023-06-26T05:48:37;17.90;99.90
12315;DHT22;23886;46.614;14.276;2023-06-26T05:51:05;17.90;99.90
12315;DHT22;23886;46.614;14.276;2023-06-26T05:53:32;18.00;99.90
12315;DHT22;23886;46.614;14.276;2023-06-26T05:56:00;18.20;99.90
12315;DHT22;23886;46.614;14.276;2023-06-26T05:58:27;18.20;99.90
12315;DHT22;23886;46.614;14.276;2023-06-26T06:00:56;18.30;99.90
12315;DHT22;23886;46.614;14.276;2023-06-26T06:03:23;18.30;99.90
12315;DHT22;23886;46.614;14.276;2023-06-26T06:05:50;18.30;99.90
12315;DHT22;23886;46.614;14.276;2023-06-26T06:08:17;18.30;99.90
12315;DHT22;23886;46.614;14.276;2023-06-26T06:10:44;18.30;99.90
12315;DHT22;23886;46.614;14.276;2023-06-26T06:13:11;18.40;99.90
12315;DHT22;23886;46.614;14.276;2023-06-26T06:15:38;18.50;99.90
12315;DHT22;23886;46.614;14.276;2023-06-26T06:18:06;18.60;99.90
12315;DHT22;23886;46.614;14.276;2023-06-26T06:20:35;18.60;99.90
12315;DHT22;23886;46.614;14.276;2023-06-26T06:23:02;18.60;99.90
12315;DHT22;23886;46.614;14.276;2023-06-26T06:25:29;18.70;99.90
12315;DHT22;23886;46.614;14.276;2023-06-26T06:27:56;18.90;99.90
12315;DHT22;23886;46.614;14.276;2023-06-26T06:30:23;19.00;99.90
12315;DHT22;23886;46.614;14.276;2023-06-26T06:32:50;19.00;99.90
12315;DHT22;23886;46.614;14.276;2023-06-26T06:35:19;19.00;99.90
12315;DHT22;23886;46.614;14.276;2023-06-26T06:37:46;19.20;99.90
12315;DHT22;23886;46.614;14.276;2023-06-26T06:40:14;19.30;99.90
12315;DHT22;23886;46.614;14.276;2023-06-26T06:42:41;19.40;99.90
12315;DHT22;23886;46.614;14.276;2023-06-26T06:45:09;19.50;99.90
12315;DHT22;23886;46.614;14.276;2023-06-26T06:47:36;19.70;99.90
12315;DHT22;23886;46.614;14.276;2023-06-26T06:50:04;19.80;99.90
12315;DHT22;23886;46.614;14.276;2023-06-26T06:52:36;19.80;99.90
12315;DHT22;23886;46.614;14.276;2023-06-26T06:55:04;19.90;99.90
12315;DHT22;23886;46.614;14.276;2023-06-26T06:57:34;19.90;99.90
12315;DHT22;23886;46.614;14.276;2023-06-26T07:00:04;20.00;99.90
12315;DHT22;23886;46.614;14.276;2023-06-26T07:02:34;20.10;99.90
12315;DHT22;23886;46.614;14.276;2023-06-26T07:05:02;20.10;99.90
12315;DHT22;23886;46.614;14.276;2023-06-26T07:07:30;20.10;99.90
12315;DHT22;23886;46.614;14.276;2023-06-26T07:10:00;20.20;99.90
12315;DHT22;23886;46.614;14.276;2023-06-26T07:12:27;20.30;99.90
12315;DHT22;23886;46.614;14.276;2023-06-26T07:14:55;20.30;99.90
12315;DHT22;23886;46.614;14.276;2023-06-26T07:17:22;20.50;99.90
12315;DHT22;23886;46.614;14.276;2023-06-26T07:19:50;20.70;99.90
12315;DHT22;23886;46.614;14.276;2023-06-26T07:22:16;20.70;99.90
12315;DHT22;23886;46.614;14.276;2023-06-26T07:24:45;20.80;99.90
12315;DHT22;23886;46.614;14.276;2023-06-26T07:27:14;20.90;99.90
12315;DHT22;23886;46.614;14.276;2023-06-26T07:29:41;21.00;99.90
12315;DHT22;23886;46.614;14.276;2023-06-26T07:32:08;21.00;99.90
12315;DHT22;23886;46.614;14.276;2023-06-26T07:34:35;21.20;99.90
12315;DHT22;23886;46.614;14.276;2023-06-26T07:37:02;21.20;99.90
12315;DHT22;23886;46.614;14.276;2023-06-26T07:39:29;21.30;99.90
12315;DHT22;23886;46.614;14.276;2023-06-26T07:41:56;21.30;99.90
12315;DHT22;23886;46.614;14.276;2023-06-26T07:44:25;21.30;99.90
12315;DHT22;23886;46.614;14.276;2023-06-26T07:46:52;21.40;99.90
12315;DHT22;23886;46.614;14.276;2023-06-26T07:49:19;21.50;99.90
12315;DHT22;23886;46.614;14.276;2023-06-26T07:51:46;21.70;99.90
12315;DHT22;23886;46.614;14.276;2023-06-26T07:54:13;22.00;99.90
12315;DHT22;23886;46.614;14.276;2023-06-26T07:56:53;22.00;99.90
12315;DHT22;23886;46.614;14.276;2023-06-26T07:59:20;22.00;99.90
12315;DHT22;23886;46.614;14.276;2023-06-26T08:01:50;22.00;99.90
12315;DHT22;23886;46.614;14.276;2023-06-26T08:04:18;22.00;99.90
12315;DHT22;23886;46.614;14.276;2023-06-26T08:06:45;22.10;99.90
12315;DHT22;23886;46.614;14.276;2023-06-26T08:09:12;22.20;99.90
12315;DHT22;23886;46.614;14.276;2023-06-26T08:11:39;22.30;99.90
12315;DHT22;23886;46.614;14.276;2023-06-26T08:14:06;22.10;99.90
12315;DHT22;23886;46.614;14.276;2023-06-26T08:16:33;22.20;99.90
12315;DHT22;23886;46.614;14.276;2023-06-26T08:19:01;22.40;99.90
12315;DHT22;23886;46.614;14.276;2023-06-26T08:21:28;22.50;99.90
12315;DHT22;23886;46.614;14.276;2023-06-26T08:23:55;22.70;99.90
12315;DHT22;23886;46.614;14.276;2023-06-26T08:26:22;22.80;99.90
12315;DHT22;23886;46.614;14.276;2023-06-26T08:28:49;23.00;99.90
12315;DHT22;23886;46.614;14.276;2023-06-26T08:31:16;23.10;99.90
12315;DHT22;23886;46.614;14.276;2023-06-26T08:33:43;23.20;99.90
12315;DHT22;23886;46.614;14.276;2023-06-26T08:36:12;23.30;99.90
12315;DHT22;23886;46.614;14.276;2023-06-26T08:38:39;23.20;99.90
12315;DHT22;23886;46.614;14.276;2023-06-26T08:41:06;23.10;99.90
12315;DHT22;23886;46.614;14.276;2023-06-26T08:43:34;23.30;99.90
12315;DHT22;23886;46.614;14.276;2023-06-26T08:46:01;23.30;99.90
12315;DHT22;23886;46.614;14.276;2023-06-26T08:48:29;23.30;99.90
12315;DHT22;23886;46.614;14.276;2023-06-26T08:51:01;23.50;99.90
12315;DHT22;23886;46.614;14.276;2023-06-26T08:53:40;23.50;99.90
12315;DHT22;23886;46.614;14.276;2023-06-26T08:56:11;23.60;99.90
12315;DHT22;23886;46.614;14.276;2023-06-26T08:58:41;23.30;99.90
12315;DHT22;23886;46.614;14.276;2023-06-26T09:01:09;23.30;99.90
12315;DHT22;23886;46.614;14.276;2023-06-26T09:03:37;23.60;99.90
12315;DHT22;23886;46.614;14.276;2023-06-26T09:06:04;23.70;99.90
12315;DHT22;23886;46.614;14.276;2023-06-26T09:08:31;23.80;99.90
12315;DHT22;23886;46.614;14.276;2023-06-26T09:11:00;23.90;99.90
12315;DHT22;23886;46.614;14.276;2023-06-26T09:13:28;24.00;99.90
12315;DHT22;23886;46.614;14.276;2023-06-26T09:15:55;24.20;99.90
12315;DHT22;23886;46.614;14.276;2023-06-26T09:18:23;24.30;99.90
12315;DHT22;23886;46.614;14.276;2023-06-26T09:20:50;24.30;99.90
12315;DHT22;23886;46.614;14.276;2023-06-26T09:23:17;24.50;99.90
12315;DHT22;23886;46.614;14.276;2023-06-26T09:25:47;24.60;99.90
12315;DHT22;23886;46.614;14.276;2023-06-26T09:28:15;24.70;99.90
12315;DHT22;23886;46.614;14.276;2023-06-26T09:30:43;24.80;99.90
12315;DHT22;23886;46.614;14.276;2023-06-26T09:33:15;24.80;99.90
12315;DHT22;23886;46.614;14.276;2023-06-26T09:35:43;24.80;99.90
12315;DHT22;23886;46.614;14.276;2023-06-26T09:38:10;24.80;99.90
12315;DHT22;23886;46.614;14.276;2023-06-26T09:40:38;25.00;99.90
12315;DHT22;23886;46.614;14.276;2023-06-26T09:43:05;25.10;99.90
12315;DHT22;23886;46.614;14.276;2023-06-26T09:45:34;25.10;99.90
12315;DHT22;23886;46.614;14.276;2023-06-26T09:48:03;25.10;99.90
12315;DHT22;23886;46.614;14.276;2023-06-26T09:50:33;25.30;99.90
12315;DHT22;23886;46.614;14.276;2023-06-26T09:53:07;25.40;99.90
12315;DHT22;23886;46.614;14.276;2023-06-26T09:55:35;25.70;99.90
12315;DHT22;23886;46.614;14.276;2023-06-26T09:58:02;25.60;99.90
12315;DHT22;23886;46.614;14.276;2023-06-26T10:00:30;25.70;99.90
12315;DHT22;23886;46.614;14.276;2023-06-26T10:02:59;25.90;99.90
12315;DHT22;23886;46.614;14.276;2023-06-26T10:05:26;26.10;99.90
12315;DHT22;23886;46.614;14.276;2023-06-26T10:07:54;26.00;99.40
12315;DHT22;23886;46.614;14.276;2023-06-26T10:10:23;26.00;99.90
12315;DHT22;23886;46.614;14.276;2023-06-26T10:12:54;26.20;99.70
12315;DHT22;23886;46.614;14.276;2023-06-26T10:15:23;26.40;99.10
12315;DHT22;23886;46.614;14.276;2023-06-26T10:17:54;26.20;96.70
12315;DHT22;23886;46.614;14.276;2023-06-26T10:20:25;26.10;98.30
12315;DHT22;23886;46.614;14.276;2023-06-26T10:22:55;26.20;98.00
12315;DHT22;23886;46.614;14.276;2023-06-26T10:25:25;26.40;99.90
12315;DHT22;23886;46.614;14.276;2023-06-26T10:27:55;26.60;99.90
12315;DHT22;23886;46.614;14.276;2023-06-26T10:30:27;26.70;97.80
12315;DHT22;23886;46.614;14.276;2023-06-26T10:32:56;26.60;95.70
12315;DHT22;23886;46.614;14.276;2023-06-26T10:35:25;26.90;96.70
12315;DHT22;23886;46.614;14.276;2023-06-26T10:38:00;26.90;96.20
12315;DHT22;23886;46.614;14.276;2023-06-26T10:40:33;26.90;96.90
12315;DHT22;23886;46.614;14.276;2023-06-26T10:43:07;27.00;94.70
12315;DHT22;23886;46.614;14.276;2023-06-26T10:45:35;27.00;96.10
12315;DHT22;23886;46.614;14.276;2023-06-26T10:48:02;27.30;96.20
12315;DHT22;23886;46.614;14.276;2023-06-26T10:50:32;27.30;96.00
12315;DHT22;23886;46.614;14.276;2023-06-26T10:53:11;27.50;96.10
12315;DHT22;23886;46.614;14.276;2023-06-26T10:55:43;27.40;94.20
12315;DHT22;23886;46.614;14.276;2023-06-26T10:58:29;27.40;97.70
12315;DHT22;23886;46.614;14.276;2023-06-26T11:01:17;27.50;95.20
12315;DHT22;23886;46.614;14.276;2023-06-26T11:03:46;27.70;93.10
12315;DHT22;23886;46.614;14.276;2023-06-26T11:06:18;27.90;93.20
12315;DHT22;23886;46.614;14.276;2023-06-26T11:08:46;28.10;94.20
12315;DHT22;23886;46.614;14.276;2023-06-26T11:11:14;28.50;93.60
12315;DHT22;23886;46.614;14.276;2023-06-26T11:13:41;28.30;94.10
12315;DHT22;23886;46.614;14.276;2023-06-26T11:16:09;28.30;92.30
12315;DHT22;23886;46.614;14.276;2023-06-26T11:18:38;28.30;93.00
12315;DHT22;23886;46.614;14.276;2023-06-26T11:21:06;28.40;92.50
12315;DHT22;23886;46.614;14.276;2023-06-26T11:23:36;28.50;92.70
12315;DHT22;23886;46.614;14.276;2023-06-26T11:26:16;28.60;92.40
12315;DHT22;23886;46.614;14.276;2023-06-26T11:28:48;28.60;91.30
12315;DHT22;23886;46.614;14.276;2023-06-26T11:31:27;28.60;91.60
12315;DHT22;23886;46.614;14.276;2023-06-26T11:33:55;28.70;94.20
12315;DHT22;23886;46.614;14.276;2023-06-26T11:36:24;28.90;93.80
12315;DHT22;23886;46.614;14.276;2023-06-26T11:38:57;29.10;92.00
12315;DHT22;23886;46.614;14.276;2023-06-26T11:41:26;29.20;91.10
12315;DHT22;23886;46.614;14.276;2023-06-26T11:43:54;29.30;93.10
12315;DHT22;23886;46.614;14.276;2023-06-26T11:46:22;30.10;91.50
12315;DHT22;23886;46.614;14.276;2023-06-26T11:48:49;30.70;87.00
12315;DHT22;23886;46.614;14.276;2023-06-26T11:51:16;30.30;89.80
12315;DHT22;23886;46.614;14.276;2023-06-26T11:53:44;30.90;89.30
12315;DHT22;23886;46.614;14.276;2023-06-26T11:56:14;31.40;88.60
12315;DHT22;23886;46.614;14.276;2023-06-26T11:58:58;31.50;90.00
12315;DHT22;23886;46.614;14.276;2023-06-26T12:01:27;31.40;90.90
12315;DHT22;23886;46.614;14.276;2023-06-26T12:03:59;31.90;93.60
12315;DHT22;23886;46.614;14.276;2023-06-26T12:06:27;31.70;85.70
12315;DHT22;23886;46.614;14.276;2023-06-26T12:08:55;31.00;86.30
12315;DHT22;23886;46.614;14.276;2023-06-26T12:11:24;31.20;89.50
12315;DHT22;23886;46.614;14.276;2023-06-26T12:13:52;31.20;87.30
12315;DHT22;23886;46.614;14.276;2023-06-26T12:16:19;31.30;89.70
12315;DHT22;23886;46.614;14.276;2023-06-26T12:18:47;32.30;81.70
12315;DHT22;23886;46.614;14.276;2023-06-26T12:21:49;32.20;87.30
12315;DHT22;23886;46.614;14.276;2023-06-26T12:24:20;32.30;83.10
12315;DHT22;23886;46.614;14.276;2023-06-26T12:26:50;32.00;87.50
12315;DHT22;23886;46.614;14.276;2023-06-26T12:29:20;32.70;77.70
12315;DHT22;23886;46.614;14.276;2023-06-26T12:31:50;33.40;78.40
12315;DHT22;23886;46.614;14.276;2023-06-26T12:34:19;33.80;76.20
12315;DHT22;23886;46.614;14.276;2023-06-26T12:36:48;34.10;77.40
12315;DHT22;23886;46.614;14.276;2023-06-26T12:39:16;34.00;78.40
12315;DHT22;23886;46.614;14.276;2023-06-26T12:41:49;34.40;76.70
12315;DHT22;23886;46.614;14.276;2023-06-26T12:44:17;34.10;74.50
12315;DHT22;23886;46.614;14.276;2023-06-26T12:46:46;34.50;72.30
12315;DHT22;23886;46.614;14.276;2023-06-26T12:49:14;33.50;73.10
12315;DHT22;23886;46.614;14.276;2023-06-26T12:51:41;34.50;82.40
12315;DHT22;23886;46.614;14.276;2023-06-26T12:54:09;33.40;72.40
12315;DHT22;23886;46.614;14.276;2023-06-26T12:56:36;33.40;75.60
12315;DHT22;23886;46.614;14.276;2023-06-26T12:59:04;34.60;73.40
12315;DHT22;23886;46.614;14.276;2023-06-26T13:01:31;35.00;71.20
12315;DHT22;23886;46.614;14.276;2023-06-26T13:03:58;34.70;73.70
12315;DHT22;23886;46.614;14.276;2023-06-26T13:06:25;35.40;71.90
12315;DHT22;23886;46.614;14.276;2023-06-26T13:08:52;35.30;70.30
12315;DHT22;23886;46.614;14.276;2023-06-26T13:11:19;34.70;77.90
12315;DHT22;23886;46.614;14.276;2023-06-26T13:13:47;35.30;71.00
12315;DHT22;23886;46.614;14.276;2023-06-26T13:16:15;34.40;69.20
12315;DHT22;23886;46.614;14.276;2023-06-26T13:18:44;34.90;71.10
12315;DHT22;23886;46.614;14.276;2023-06-26T13:21:11;35.30;74.40
12315;DHT22;23886;46.614;14.276;2023-06-26T13:23:38;34.70;74.10
12315;DHT22;23886;46.614;14.276;2023-06-26T13:26:05;35.20;75.40
12315;DHT22;23886;46.614;14.276;2023-06-26T13:28:32;35.60;70.80
12315;DHT22;23886;46.614;14.276;2023-06-26T13:30:59;35.20;72.20
12315;DHT22;23886;46.614;14.276;2023-06-26T13:33:28;34.80;67.80
12315;DHT22;23886;46.614;14.276;2023-06-26T13:35:55;35.60;72.80
12315;DHT22;23886;46.614;14.276;2023-06-26T13:38:22;36.30;73.80
12315;DHT22;23886;46.614;14.276;2023-06-26T13:40:51;37.20;66.40
12315;DHT22;23886;46.614;14.276;2023-06-26T13:43:19;36.90;62.90
12315;DHT22;23886;46.614;14.276;2023-06-26T13:45:47;36.40;63.90
12315;DHT22;23886;46.614;14.276;2023-06-26T13:48:14;35.00;66.30
12315;DHT22;23886;46.614;14.276;2023-06-26T13:50:43;35.90;65.10
12315;DHT22;23886;46.614;14.276;2023-06-26T13:53:10;35.40;66.40
12315;DHT22;23886;46.614;14.276;2023-06-26T13:55:36;36.20;68.30
12315;DHT22;23886;46.614;14.276;2023-06-26T13:58:04;36.80;64.30
12315;DHT22;23886;46.614;14.276;2023-06-26T14:00:31;36.40;60.90
12315;DHT22;23886;46.614;14.276;2023-06-26T14:02:59;37.10;65.00
12315;DHT22;23886;46.614;14.276;2023-06-26T14:05:26;36.70;67.90
12315;DHT22;23886;46.614;14.276;2023-06-26T14:07:54;35.80;66.10
12315;DHT22;23886;46.614;14.276;2023-06-26T14:10:22;35.70;71.00
12315;DHT22;23886;46.614;14.276;2023-06-26T14:12:49;35.70;66.90
12315;DHT22;23886;46.614;14.276;2023-06-26T14:15:17;36.70;75.90
12315;DHT22;23886;46.614;14.276;2023-06-26T14:17:44;37.70;75.60
12315;DHT22;23886;46.614;14.276;2023-06-26T14:20:11;39.20;58.90
12315;DHT22;23886;46.614;14.276;2023-06-26T14:22:40;38.40;60.20
12315;DHT22;23886;46.614;14.276;2023-06-26T14:25:09;37.10;67.10
12315;DHT22;23886;46.614;14.276;2023-06-26T14:27:37;37.60;63.70
12315;DHT22;23886;46.614;14.276;2023-06-26T14:30:06;38.80;59.80
12315;DHT22;23886;46.614;14.276;2023-06-26T14:32:33;37.80;70.70
12315;DHT22;23886;46.614;14.276;2023-06-26T14:35:01;36.70;63.40
12315;DHT22;23886;46.614;14.276;2023-06-26T14:37:30;35.80;67.60
12315;DHT22;23886;46.614;14.276;2023-06-26T14:39:57;37.40;72.00
12315;DHT22;23886;46.614;14.276;2023-06-26T14:42:25;37.20;72.20
12315;DHT22;23886;46.614;14.276;2023-06-26T14:44:52;36.70;63.40
12315;DHT22;23886;46.614;14.276;2023-06-26T14:47:20;38.50;59.70
12315;DHT22;23886;46.614;14.276;2023-06-26T14:49:47;39.40;63.60
12315;DHT22;23886;46.614;14.276;2023-06-26T14:52:14;38.50;65.70
12315;DHT22;23886;46.614;14.276;2023-06-26T14:54:41;38.30;64.30
12315;DHT22;23886;46.614;14.276;2023-06-26T14:57:08;38.70;62.00
12315;DHT22;23886;46.614;14.276;2023-06-26T14:59:37;38.00;59.80
12315;DHT22;23886;46.614;14.276;2023-06-26T15:02:05;37.10;66.20
12315;DHT22;23886;46.614;14.276;2023-06-26T15:04:32;36.50;61.40
12315;DHT22;23886;46.614;14.276;2023-06-26T15:06:59;36.80;62.70
12315;DHT22;23886;46.614;14.276;2023-06-26T15:09:26;38.30;67.60
12315;DHT22;23886;46.614;14.276;2023-06-26T15:11:53;38.50;62.20
12315;DHT22;23886;46.614;14.276;2023-06-26T15:14:20;39.80;58.90
12315;DHT22;23886;46.614;14.276;2023-06-26T15:16:48;38.50;64.70
12315;DHT22;23886;46.614;14.276;2023-06-26T15:19:15;39.30;61.50
12315;DHT22;23886;46.614;14.276;2023-06-26T15:21:42;37.80;59.80